Time;durP1;ratioP1;P1;durP2;ratioP2;P2;SDS_P1;SDS_P2;PMS_P1;PMS_P2;Temp;Humidity;BMP_temperature;BMP_pressure;BME280_temperature;BME280_humidity;BME280_pressure;Samples;Min_cycle;Max_cycle;Signal;HPM_P1;HPM_P2
2022/03/07 00:00:53;;;;;;;1.80;1.43;;;;;;;4.67;82.42;98913.19;4956023;29;20653;-89
2022/03/07 00:03:19;;;;;;;3.30;1.90;;;;;;;4.64;82.52;98920.25;4955952;29;20185;-89
2022/03/07 00:05:44;;;;;;;4.20;2.60;;;;;;;4.45;82.70;98916.53;4939012;29;20200;-89
2022/03/07 00:08:10;;;;;;;2.53;1.60;;;;;;;4.28;83.95;98915.31;4939002;29;20193;-89
2022/03/07 00:10:35;;;;;;;3.03;2.17;;;;;;;4.16;85.07;98907.06;4938732;29;20661;-89
2022/03/07 00:13:02;;;;;;;4.17;2.10;;;;;;;4.25;85.06;98905.03;4938834;29;20198;-88
2022/03/07 00:15:28;;;;;;;2.93;1.90;;;;;;;4.30;84.77;98903.13;4939103;29;20205;-89
2022/03/07 00:17:54;;;;;;;2.80;2.03;;;;;;;4.27;84.90;98902.41;4938762;29;20301;-88
2022/03/07 00:20:19;;;;;;;4.63;3.07;;;;;;;4.20;84.46;98899.13;4956181;29;20177;-89
2022/03/07 00:22:45;;;;;;;3.53;1.63;;;;;;;4.21;84.57;98906.03;4938741;29;20181;-88
2022/03/07 00:25:10;;;;;;;2.27;1.33;;;;;;;4.30;84.55;98908.31;4955586;29;20627;-88
2022/03/07 00:27:36;;;;;;;2.37;1.53;;;;;;;4.25;84.96;98905.03;4955482;29;20229;-88
2022/03/07 00:30:02;;;;;;;1.60;1.33;;;;;;;4.33;85.05;98913.44;4938447;29;20287;-88
2022/03/07 00:32:27;;;;;;;5.90;2.47;;;;;;;4.34;84.85;98914.28;4955469;29;20340;-88
2022/03/07 00:34:54;;;;;;;3.57;1.40;;;;;;;4.33;84.83;98917.75;4938564;29;20647;-88
2022/03/07 00:37:20;;;;;;;2.93;1.70;;;;;;;4.28;85.03;98914.47;4955275;28;20248;-88
2022/03/07 00:39:45;;;;;;;1.80;1.30;;;;;;;4.37;84.70;98905.56;4955287;29;20631;-88
2022/03/07 00:42:11;;;;;;;3.20;1.83;;;;;;;4.33;85.02;98912.56;4955214;29;20196;-88
2022/03/07 00:44:37;;;;;;;8.37;1.60;;;;;;;4.39;84.42;98916.72;4938302;29;20193;-89
2022/03/07 00:47:03;;;;;;;3.70;1.33;;;;;;;4.16;85.49;98914.84;4938871;29;20181;-88
2022/03/07 00:49:28;;;;;;;2.70;1.77;;;;;;;4.24;85.60;98908.53;4938251;29;20185;-88
2022/03/07 00:51:56;;;;;;;2.83;1.80;;;;;;;4.29;85.07;98906.66;4955420;29;20528;-89
2022/03/07 00:54:22;;;;;;;4.00;1.57;;;;;;;4.32;84.73;98901.34;4955400;29;20173;-89
2022/03/07 00:56:47;;;;;;;2.77;1.50;;;;;;;4.51;84.42;98899.00;4955180;29;20176;-90
2022/03/07 00:59:13;;;;;;;1.53;0.93;;;;;;;4.66;83.42;98900.28;4955642;29;20194;-89
2022/03/07 01:01:38;;;;;;;5.57;3.00;;;;;;;4.60;83.80;98897.88;4955075;29;20502;-89
2022/03/07 01:04:04;;;;;;;2.57;1.70;;;;;;;4.57;84.07;98895.38;4938082;29;20180;-89
2022/03/07 01:06:30;;;;;;;2.53;1.27;;;;;;;4.57;83.76;98895.38;4955244;29;20208;-88
2022/03/07 01:08:55;;;;;;;4.77;2.37;;;;;;;4.73;83.22;98894.84;4938091;29;20247;-89
2022/03/07 01:11:21;;;;;;;3.40;2.10;;;;;;;4.76;83.01;98901.69;4955138;29;20208;-90
2022/03/07 01:13:46;;;;;;;2.77;1.60;;;;;;;4.67;83.17;98896.78;4954916;29;20181;-89
2022/03/07 01:16:12;;;;;;;6.13;1.73;;;;;;;4.80;83.05;98898.06;4955380;29;20260;-89
2022/03/07 01:18:37;;;;;;;2.63;1.20;;;;;;;4.56;83.54;98896.28;4954941;29;20615;-89
2022/03/07 01:21:03;;;;;;;1.40;1.07;;;;;;;4.53;83.39;98904.19;4954870;29;20598;-89
2022/03/07 01:23:29;;;;;;;4.33;1.70;;;;;;;4.70;82.76;98901.88;4954929;29;20173;-90
2022/03/07 01:25:54;;;;;;;3.63;1.43;;;;;;;4.86;82.87;98908.25;4955454;29;20583;-90
2022/03/07 01:28:20;;;;;;;4.70;2.27;;;;;;;4.77;82.34;98905.97;4937900;29;20302;-90
2022/03/07 01:30:48;;;;;;;5.37;3.03;;;;;;;4.61;82.60;98909.97;4938173;29;20558;-90
2022/03/07 01:33:13;;;;;;;5.60;2.70;;;;;;;4.48;83.90;98912.09;4938539;29;20586;-90
2022/03/07 01:35:39;;;;;;;2.43;1.63;;;;;;;4.46;83.95;98913.88;4955116;29;20177;-90
2022/03/07 01:38:05;;;;;;;4.40;2.37;;;;;;;4.34;84.67;98912.53;4954892;29;20173;-91
2022/03/07 01:40:30;;;;;;;6.57;2.67;;;;;;;4.22;84.68;98915.50;4938006;29;20196;-90
2022/03/07 01:42:56;;;;;;;6.00;3.40;;;;;;;4.39;84.83;98911.53;4937884;29;20197;-92
2022/03/07 01:45:22;;;;;;;6.03;3.13;;;;;;;4.38;84.98;98907.25;4938270;29;20189;-90
2022/03/07 01:47:48;;;;;;;7.10;3.40;;;;;;;4.47;84.32;98907.81;4954911;29;20212;-90
2022/03/07 01:50:16;;;;;;;5.93;3.13;;;;;;;4.39;83.82;98899.41;4940695;29;20567;-89
2022/03/07 01:52:44;;;;;;;5.77;3.50;;;;;;;4.31;84.92;98897.06;4958421;29;20185;-90
2022/03/07 01:55:11;;;;;;;3.37;2.30;;;;;;;4.35;84.39;98906.44;4941455;29;20191;-90
2022/03/07 01:57:38;;;;;;;2.87;2.00;;;;;;;4.26;85.03;98911.94;4958540;29;20169;-90
2022/03/07 02:00:08;;;;;;;3.43;1.40;;;;;;;4.39;84.90;98901.16;4958214;29;20192;-90
2022/03/07 02:02:34;;;;;;;4.57;2.20;;;;;;;4.30;84.59;98913.50;4958449;29;20252;-90
2022/03/07 02:05:00;;;;;;;1.80;1.23;;;;;;;4.34;84.47;98896.97;4941536;29;20204;-88
2022/03/07 02:07:25;;;;;;;5.57;1.53;;;;;;;4.43;84.33;98902.78;4941073;29;20181;-89
2022/03/07 02:09:51;;;;;;;3.37;1.53;;;;;;;4.55;83.89;98903.22;4941867;29;20221;-89
2022/03/07 02:12:16;;;;;;;2.27;1.50;;;;;;;4.44;83.58;98910.50;4958004;29;20208;-88
2022/03/07 02:14:42;;;;;;;4.27;1.77;;;;;;;4.52;83.27;98907.66;4957919;29;20181;-88
2022/03/07 02:17:07;;;;;;;1.07;0.80;;;;;;;4.45;82.96;98912.22;4957921;29;20196;-89
2022/03/07 02:19:34;;;;;;;2.73;1.50;;;;;;;4.41;83.93;98912.31;4958103;29;20628;-88
2022/03/07 02:22:01;;;;;;;2.87;1.30;;;;;;;4.52;83.37;98913.69;4941692;29;20258;-89
2022/03/07 02:24:28;;;;;;;0.90;0.50;;;;;;;4.72;82.89;98911.31;4958018;29;20542;-89
2022/03/07 02:26:57;;;;;;;2.90;1.47;;;;;;;4.53;82.92;98917.16;4957786;29;20181;-88
2022/03/07 02:29:23;;;;;;;2.73;1.20;;;;;;;4.62;83.09;98915.09;4957978;29;20683;-88
2022/03/07 02:31:50;;;;;;;2.63;1.57;;;;;;;4.47;83.55;98918.19;4957902;29;20374;-89
2022/03/07 02:34:15;;;;;;;3.07;1.10;;;;;;;4.48;84.03;98921.63;4940620;29;20185;-89
2022/03/07 02:36:41;;;;;;;4.27;1.10;;;;;;;4.60;83.04;98919.50;4940632;29;20200;-88
2022/03/07 02:39:06;;;;;;;2.27;1.13;;;;;;;4.72;82.68;98921.69;4958009;29;20215;-89
2022/03/07 02:41:32;;;;;;;1.53;0.93;;;;;;;4.83;82.01;98924.78;4940857;29;20182;-89
2022/03/07 02:43:57;;;;;;;1.57;1.13;;;;;;;4.77;81.87;98926.75;4940535;29;20207;-88
2022/03/07 02:46:23;;;;;;;3.83;1.23;;;;;;;4.82;82.21;98928.28;4940755;29;20189;-89
2022/03/07 02:48:48;;;;;;;1.43;0.93;;;;;;;4.82;81.51;98922.25;4940522;29;20245;-89
2022/03/07 02:51:14;;;;;;;4.30;1.70;;;;;;;4.70;81.70;98922.63;4941204;29;20628;-88
2022/03/07 02:53:39;;;;;;;3.00;1.67;;;;;;;4.74;81.63;98922.47;4957578;29;20211;-89
2022/03/07 02:56:05;;;;;;;1.60;1.03;;;;;;;4.84;81.28;98925.63;4940562;29;20620;-90
2022/03/07 02:58:31;;;;;;;8.07;2.57;;;;;;;4.75;81.47;98920.72;4957126;29;20185;-90
2022/03/07 03:00:56;;;;;;;1.70;1.10;;;;;;;4.79;81.95;98923.22;4939841;29;20271;-89
2022/03/07 03:03:22;;;;;;;2.47;1.90;;;;;;;4.67;81.67;98923.59;4940422;29;20185;-89
2022/03/07 03:05:48;;;;;;;3.83;2.30;;;;;;;4.81;81.56;98925.75;4940647;29;20259;-90
2022/03/07 03:08:13;;;;;;;3.83;1.50;;;;;;;4.81;81.39;98920.53;4940914;29;20216;-90
2022/03/07 03:10:39;;;;;;;3.63;1.77;;;;;;;4.77;81.55;98921.56;4957225;29;20634;-90
2022/03/07 03:13:04;;;;;;;2.33;1.77;;;;;;;4.85;81.43;98922.13;4940301;29;20181;-90
2022/03/07 03:15:30;;;;;;;3.20;1.60;;;;;;;4.88;81.14;98927.22;4940013;29;20234;-90
2022/03/07 03:17:55;;;;;;;3.00;1.67;;;;;;;4.82;80.87;98917.06;4957128;29;20545;-90
2022/03/07 03:20:21;;;;;;;6.00;1.67;;;;;;;4.89;80.85;98915.94;4939847;29;20279;-90
2022/03/07 03:22:46;;;;;;;4.87;2.00;;;;;;;4.68;81.93;98919.25;4941045;29;20181;-90
2022/03/07 03:25:15;;;;;;;4.30;1.77;;;;;;;4.77;81.58;98914.59;4940681;29;20347;-90
2022/03/07 03:27:42;;;;;;;6.30;2.30;;;;;;;4.84;80.98;98913.50;4956941;29;20276;-90
2022/03/07 03:30:10;;;;;;;5.60;1.93;;;;;;;4.72;81.52;98915.63;4956833;29;20208;-90
2022/03/07 03:32:35;;;;;;;4.53;1.50;;;;;;;4.85;81.31;98916.94;4940122;29;20188;-91
2022/03/07 03:35:01;;;;;;;5.40;2.33;;;;;;;4.92;80.94;98923.66;4939686;29;20267;-90
2022/03/07 03:37:27;;;;;;;6.87;3.53;;;;;;;5.02;80.74;98919.84;4939795;29;20693;-91
2022/03/07 03:39:54;;;;;;;5.00;2.33;;;;;;;4.99;80.17;98912.13;4939953;29;20185;-91
2022/03/07 03:42:21;;;;;;;4.30;1.40;;;;;;;5.00;80.59;98919.03;4939496;29;20658;-92
2022/03/07 03:44:47;;;;;;;2.10;1.33;;;;;;;5.04;80.18;98923.22;4940444;29;20340;-92
2022/03/07 03:47:12;;;;;;;4.57;2.03;;;;;;;5.14;80.63;98916.81;4956476;29;20197;-91
2022/03/07 03:49:38;;;;;;;4.20;2.37;;;;;;;4.98;80.03;98918.22;4939787;29;20185;-92
2022/03/07 03:52:05;;;;;;;3.23;1.57;;;;;;;5.01;80.58;98923.31;4940054;29;20604;-92
2022/03/07 03:54:31;;;;;;;15.80;2.77;;;;;;;4.98;80.56;98923.41;4956607;29;20655;-92
2022/03/07 03:56:57;;;;;;;3.97;1.80;;;;;;;5.08;80.57;98918.78;4956683;29;20192;-92
2022/03/07 03:59:22;;;;;;;7.30;2.60;;;;;;;5.08;80.48;98919.63;4939661;29;20185;-93
2022/03/07 04:01:48;;;;;;;7.30;2.57;;;;;;;5.15;80.09;98913.31;4957062;29;20181;-92
2022/03/07 04:04:15;;;;;;;5.63;2.30;;;;;;;5.26;79.82;98913.81;4940132;29;20181;-94
2022/03/07 04:06:41;;;;;;;7.73;2.73;;;;;;;5.18;79.84;98915.81;4940415;29;20185;-92
2022/03/07 04:09:13;;;;;;;4.50;2.43;;;;;;;5.23;79.64;98913.06;4939922;29;20181;-93
2022/03/07 04:11:39;;;;;;;7.77;4.13;;;;;;;5.27;79.53;98917.22;4939498;28;20211;-94
2022/03/07 04:14:04;;;;;;;5.10;1.67;;;;;;;5.27;78.94;98917.22;4939527;29;20177;-94
2022/03/07 04:16:30;;;;;;;11.57;3.17;;;;;;;5.35;79.65;98918.66;4956584;29;20272;-95
2022/03/07 04:18:55;;;;;;;7.97;3.27;;;;;;;5.44;78.71;98918.34;4939620;29;20293;-94
2022/03/07 04:21:22;;;;;;;5.43;2.37;;;;;;;5.39;79.20;98920.28;4957052;29;20185;-94
2022/03/07 04:23:48;;;;;;;7.80;2.83;;;;;;;5.50;79.00;98923.31;4939455;29;20200;-93
2022/03/07 04:26:16;;;;;;;8.20;3.00;;;;;;;5.53;78.33;98919.75;4956222;29;20208;-93
2022/03/07 04:28:42;;;;;;;5.80;2.50;;;;;;;5.46;78.94;98913.94;4939729;29;20189;-94
2022/03/07 04:31:07;;;;;;;9.03;3.63;;;;;;;5.50;78.94;98914.69;4940067;29;20205;-94
2022/03/07 04:33:33;;;;;;;4.70;2.60;;;;;;;5.51;78.19;98913.78;4940319;29;20189;-92
2022/03/07 04:35:58;;;;;;;6.07;2.83;;;;;;;5.38;78.99;98918.56;4956623;29;20196;-94
2022/03/07 04:38:26;;;;;;;12.77;4.50;;;;;;;5.31;79.04;98911.91;4940571;29;20647;-94
2022/03/07 04:40:52;;;;;;;6.17;2.50;;;;;;;5.40;78.69;98915.91;4940262;29;20184;-94
2022/03/07 04:43:19;;;;;;;5.93;2.23;;;;;;;5.45;78.81;98914.84;4941052;29;20225;-95
2022/03/07 04:45:46;;;;;;;4.90;3.37;;;;;;;5.36;79.12;98909.97;4942617;29;20234;-95
2022/03/07 04:48:11;;;;;;;9.07;3.67;;;;;;;5.38;78.78;98910.75;4943602;29;20193;-95
2022/03/07 04:50:37;;;;;;;8.30;2.87;;;;;;;5.15;79.03;98915.91;4942737;29;20221;-96
2022/03/07 04:53:05;;;;;;;7.10;3.50;;;;;;;5.10;79.63;98917.81;4942283;29;20650;-93
2022/03/07 04:55:31;;;;;;;7.43;2.77;;;;;;;5.19;79.57;98916.66;4944546;29;20257;-96
2022/03/07 04:57:56;;;;;;;6.00;3.73;;;;;;;5.11;79.88;98914.31;4944589;29;20189;-95
2022/03/07 05:00:54;;;;;;;9.17;3.57;;;;;;;5.13;80.22;98920.31;4945128;29;20192;-95
2022/03/07 05:21:29;;;;;;;;;;;;;;;;;;;;;
2022/03/07 05:27:11;;;;;;;7.80;4.57;;;;;;;4.96;80.90;98927.81;4791046;30;20201;-94
2022/03/07 05:29:37;;;;;;;5.33;3.33;;;;;;;4.94;81.16;98930.47;4814795;29;20554;-94
2022/03/07 05:32:03;;;;;;;10.93;4.30;;;;;;;4.97;81.07;98927.78;4909380;29;20352;-94
2022/03/07 05:34:29;;;;;;;10.17;2.77;;;;;;;4.95;81.09;98926.97;4942520;29;20180;-92
2022/03/07 05:36:54;;;;;;;7.13;3.80;;;;;;;4.94;81.43;98927.88;4942353;29;20188;-93
2022/03/07 05:39:20;;;;;;;10.20;4.13;;;;;;;4.98;81.57;98928.59;4942274;29;20192;-93
2022/03/07 05:41:45;;;;;;;9.07;3.60;;;;;;;4.87;81.39;98925.53;4942270;29;20177;-92
2022/03/07 05:44:11;;;;;;;15.83;4.30;;;;;;;4.74;82.48;98924.25;4941977;29;20240;-92
2022/03/07 05:46:36;;;;;;;7.37;2.73;;;;;;;4.81;82.40;98926.59;4942299;29;20231;-93
2022/03/07 05:49:02;;;;;;;7.07;4.37;;;;;;;4.85;81.89;98922.97;4959376;29;20285;-93
2022/03/07 05:51:29;;;;;;;15.87;4.47;;;;;;;4.87;81.58;98925.53;4942042;29;20208;-93
2022/03/07 05:53:54;;;;;;;8.77;4.30;;;;;;;5.02;81.38;98922.44;4941979;29;20188;-92
2022/03/07 05:56:20;;;;;;;9.63;3.83;;;;;;;5.09;80.79;98923.06;4942021;29;20185;-92
2022/03/07 05:58:48;;;;;;;9.70;5.10;;;;;;;5.03;80.80;98916.34;4941844;29;20185;-92
2022/03/07 06:01:15;;;;;;;11.60;5.70;;;;;;;5.16;81.04;98916.78;4958669;29;20185;-93
2022/03/07 06:03:40;;;;;;;17.90;6.23;;;;;;;5.29;80.05;98918.03;4941963;29;20319;-93
2022/03/07 06:06:06;;;;;;;12.37;6.17;;;;;;;5.22;80.49;98911.34;4942101;29;20209;-94
2022/03/07 06:08:31;;;;;;;8.57;4.13;;;;;;;5.31;80.11;98917.09;4941939;29;20196;-94
2022/03/07 06:10:57;;;;;;;9.70;4.77;;;;;;;5.37;79.81;98916.03;4942327;29;20677;-96
2022/03/07 06:13:25;;;;;;;15.87;5.27;;;;;;;5.34;79.78;98916.13;4945602;29;20185;-96
2022/03/07 06:15:56;;;;;;;9.67;4.43;;;;;;;5.42;79.81;98924.50;4958937;29;20284;-95
2022/03/07 06:19:06;;;;;;;;;;;;;;;;;;;;;
2022/03/07 07:25:07;;;;;;;;;;;;;;;;;;;;;
2022/03/07 07:27:33;;;;;;;10.77;3.70;;;;;;;6.59;75.54;98933.97;4909649;29;20222;-92
2022/03/07 07:29:59;;;;;;;10.07;3.97;;;;;;;6.61;75.92;98925.19;4921478;29;20751;-92
2022/03/07 07:32:25;;;;;;;9.43;4.47;;;;;;;6.59;75.41;98932.22;4927459;29;20208;-91
2022/03/07 07:34:50;;;;;;;11.40;3.73;;;;;;;6.69;75.11;98928.34;4950686;29;20209;-92
2022/03/07 07:37:16;;;;;;;5.87;3.33;;;;;;;6.71;75.22;98929.09;4939839;29;20219;-92
2022/03/07 07:39:42;;;;;;;7.57;4.23;;;;;;;6.88;75.31;98932.78;4957175;29;20612;-92
2022/03/07 07:42:19;;;;;;;7.57;5.30;;;;;;;6.93;75.30;98928.25;4940326;29;20627;-92
2022/03/07 07:45:12;;;;;;;12.67;5.20;;;;;;;7.00;75.70;98927.91;4939971;29;20686;-92
2022/03/07 07:48:36;;;;;;;8.73;4.83;;;;;;;7.09;74.91;98930.16;4939885;29;20196;-93
2022/03/07 07:51:57;;;;;;;;;;;;;;;;;;;;;
2022/03/07 07:55:08;;;;;;;11.33;5.23;;;;;;;7.11;74.96;98928.31;4880238;29;20172;-93
2022/03/07 08:05:48;;;;;;;;;;;;;;;;;;;;;
2022/03/07 08:15:11;;;;;;;17.67;7.33;;;;;;;7.63;73.89;98926.94;4897836;29;20210;-94
2022/03/07 08:27:54;;;;;;;16.47;7.10;;;;;;;7.55;74.55;98917.78;4856526;29;20296;-96
2022/03/07 08:30:33;;;;;;;;;;;;;;;;;;;;;
2022/03/07 09:05:51;;;;;;;9.60;2.83;;;;;;;8.30;69.58;98913.47;4965525;23;20234;-96
2022/03/07 09:08:19;;;;;;;5.73;2.33;;;;;;;8.28;70.00;98910.09;4917159;29;20253;-95
2022/03/07 09:10:45;;;;;;;4.13;2.47;;;;;;;8.07;68.64;98912.72;4916766;29;20206;-95
2022/03/07 09:13:11;;;;;;;9.83;3.47;;;;;;;8.18;69.95;98908.78;4916796;29;20645;-95
2022/03/07 09:15:37;;;;;;;25.83;7.30;;;;;;;8.26;70.84;98902.28;4916793;29;20190;-96
2022/03/07 09:18:02;;;;;;;12.43;5.27;;;;;;;8.43;71.23;98905.00;4916924;29;20613;-95
2022/03/07 09:20:33;;;;;;;15.77;4.60;;;;;;;8.34;70.12;98899.34;4917945;29;20185;-95
2022/03/07 09:23:03;;;;;;;10.97;4.20;;;;;;;8.51;71.21;98902.88;4926727;29;20261;-96
2022/03/07 09:26:22;;;;;;;6.27;2.83;;;;;;;8.33;69.82;98902.88;4923365;29;20238;-95
2022/03/07 09:28:43;;;;;;;10.93;3.37;;;;;;;8.40;69.56;98909.50;4916509;29;20664;-95
2022/03/07 09:31:11;;;;;;;13.67;3.90;;;;;;;8.55;68.96;98908.78;4920694;29;20194;-96
2022/03/07 09:33:38;;;;;;;14.90;4.33;;;;;;;8.85;69.58;98912.53;4938643;29;20186;-95
2022/03/07 09:36:04;;;;;;;26.83;10.00;;;;;;;8.74;67.99;98912.19;4919551;29;20254;-95
2022/03/07 09:38:31;;;;;;;16.60;7.50;;;;;;;8.67;67.08;98904.72;4918229;29;20659;-95
2022/03/07 09:40:57;;;;;;;38.93;8.50;;;;;;;8.49;67.90;98906.47;4917030;29;20190;-95
2022/03/07 09:43:23;;;;;;;11.50;4.87;;;;;;;8.70;68.58;98897.56;4916719;29;20724;-95
2022/03/07 09:45:49;;;;;;;10.47;3.53;;;;;;;8.66;65.89;98901.28;4916636;29;20245;-96
2022/03/07 09:48:15;;;;;;;13.40;5.27;;;;;;;8.52;67.12;98899.31;4916951;29;20186;-94
2022/03/07 09:50:43;;;;;;;11.23;5.60;;;;;;;8.68;67.64;98895.94;4916188;29;20635;-94
2022/03/07 09:53:10;;;;;;;16.60;6.03;;;;;;;8.88;68.20;98896.69;4916635;29;20202;-94
2022/03/07 09:55:37;;;;;;;9.83;4.53;;;;;;;8.95;68.07;98895.47;4916273;29;20193;-94
2022/03/07 09:58:05;;;;;;;10.90;4.00;;;;;;;8.98;66.08;98891.84;4916273;29;20192;-94
2022/03/07 10:00:30;;;;;;;9.53;3.67;;;;;;;8.94;66.19;98893.75;4916327;29;20190;-94
2022/03/07 10:03:02;;;;;;;6.73;2.93;;;;;;;9.12;66.45;98890.22;4916166;29;20617;-94
2022/03/07 10:05:40;;;;;;;9.80;3.07;;;;;;;8.85;68.72;98893.38;4916189;29;20209;-94
2022/03/07 10:08:07;;;;;;;8.87;4.10;;;;;;;9.03;67.72;98895.94;4916288;29;20286;-95
2022/03/07 10:10:40;;;;;;;7.07;3.43;;;;;;;9.07;68.27;98892.22;4917789;29;20208;-95
2022/03/07 10:13:15;;;;;;;6.67;2.90;;;;;;;9.32;68.85;98888.38;4919679;29;20197;-94
2022/03/07 10:15:42;;;;;;;6.33;2.90;;;;;;;9.32;67.64;98880.53;4919525;29;20177;-94
2022/03/07 10:18:15;;;;;;;5.70;2.83;;;;;;;9.50;66.50;98884.78;4919634;29;20175;-94
2022/03/07 10:20:52;;;;;;;7.50;3.00;;;;;;;9.74;65.25;98880.91;4919526;29;20262;-94
2022/03/07 10:23:18;;;;;;;9.30;4.23;;;;;;;9.91;66.83;98878.22;4919436;29;20185;-94
2022/03/07 10:25:45;;;;;;;6.77;3.63;;;;;;;10.05;65.68;98874.84;4919240;29;20224;-93
2022/03/07 10:28:13;;;;;;;7.70;3.27;;;;;;;9.96;61.18;98878.81;4919180;29;20285;-93
2022/03/07 10:30:39;;;;;;;5.47;3.17;;;;;;;10.11;62.81;98866.66;4919296;29;20570;-94
2022/03/07 10:33:13;;;;;;;5.73;2.83;;;;;;;10.28;64.33;98862.22;4919467;29;20218;-93
2022/03/07 10:35:44;;;;;;;4.77;2.20;;;;;;;10.56;65.54;98869.34;4919300;29;20191;-94
2022/03/07 10:38:18;;;;;;;6.27;2.97;;;;;;;10.72;62.45;98853.59;4919200;29;20737;-95
2022/03/07 10:40:53;;;;;;;4.63;2.20;;;;;;;10.90;61.61;98857.81;4920272;29;20174;-96
2022/03/07 10:43:20;;;;;;;7.57;3.03;;;;;;;10.77;59.81;98854.19;4922425;29;20186;-95
2022/03/07 10:45:59;;;;;;;4.23;2.60;;;;;;;10.81;59.90;98847.84;4919608;29;20190;-95
2022/03/07 10:48:27;;;;;;;5.03;2.40;;;;;;;11.00;60.04;98858.94;4919123;29;20186;-94
2022/03/07 10:50:56;;;;;;;7.90;2.40;;;;;;;11.16;59.07;98853.63;4919566;29;20222;-95
2022/03/07 10:53:23;;;;;;;4.53;2.30;;;;;;;11.39;58.56;98853.09;4919034;29;20278;-95
2022/03/07 10:56:01;;;;;;;5.17;2.50;;;;;;;11.67;59.67;98840.84;4921485;29;20179;-96
2022/03/07 10:58:28;;;;;;;6.47;2.17;;;;;;;11.82;55.14;98843.50;4922103;29;20258;-96
2022/03/07 11:00:57;;;;;;;14.80;4.97;;;;;;;11.83;55.09;98837.28;4920586;29;20221;-96
2022/03/07 11:03:23;;;;;;;19.20;7.10;;;;;;;11.70;52.74;98845.09;4919297;29;20182;-96
2022/03/07 11:05:50;;;;;;;16.77;5.10;;;;;;;11.33;54.15;98848.22;4919352;29;20270;-96
2022/03/07 11:08:16;;;;;;;13.03;5.90;;;;;;;10.71;55.25;98846.69;4920449;29;20183;-95
2022/03/07 11:10:45;;;;;;;13.80;4.87;;;;;;;10.46;55.40;98844.59;4918657;29;20569;-95
2022/03/07 11:13:16;;;;;;;8.97;4.77;;;;;;;10.48;56.10;98846.22;4918545;29;20664;-95
2022/03/07 11:15:44;;;;;;;17.87;5.10;;;;;;;10.61;56.02;98835.91;4918465;29;20208;-96
2022/03/07 11:18:14;;;;;;;4.07;1.47;;;;;;;10.76;55.46;98839.41;4918635;29;20194;-96
2022/03/07 11:20:42;;;;;;;3.30;1.73;;;;;;;10.67;54.69;98827.66;4920487;29;20182;-95
2022/03/07 11:23:10;;;;;;;4.97;1.67;;;;;;;10.74;55.31;98836.03;4918301;29;20190;-96
2022/03/07 11:25:36;;;;;;;4.40;2.00;;;;;;;10.40;54.75;98835.31;4918360;29;20629;-95
2022/03/07 11:28:03;;;;;;;5.43;2.10;;;;;;;10.37;56.80;98824.19;4918392;29;20787;-95
2022/03/07 11:30:34;;;;;;;4.97;1.90;;;;;;;10.57;55.25;98825.66;4918223;29;20575;-95
2022/03/07 11:33:10;;;;;;;4.27;1.70;;;;;;;10.55;54.77;98819.66;4918471;29;20175;-96
2022/03/07 11:35:36;;;;;;;5.40;2.20;;;;;;;10.62;56.25;98810.50;4918613;29;20612;-96
2022/03/07 11:38:24;;;;;;;9.30;2.73;;;;;;;10.67;55.91;98811.94;4918140;29;20552;-95
2022/03/07 11:41:11;;;;;;;3.17;2.00;;;;;;;10.78;56.04;98811.31;4918259;29;20167;-96
2022/03/07 11:43:58;;;;;;;5.17;2.10;;;;;;;10.73;55.32;98802.88;4917136;29;20187;-96
2022/03/07 11:46:27;;;;;;;3.60;1.80;;;;;;;10.64;55.83;98799.00;4916679;29;20178;-88
2022/03/07 11:48:54;;;;;;;3.63;1.70;;;;;;;10.69;56.77;98793.50;4916629;29;20193;-88
2022/03/07 11:51:28;;;;;;;4.33;2.20;;;;;;;10.85;56.36;98791.66;4915488;29;20764;-88
2022/03/07 11:53:55;;;;;;;2.57;1.50;;;;;;;10.94;55.33;98796.38;4915501;29;20190;-88
2022/03/07 11:56:21;;;;;;;4.83;2.00;;;;;;;11.09;56.37;98782.31;4916435;29;20182;-88
2022/03/07 11:58:49;;;;;;;5.40;1.77;;;;;;;10.89;53.43;98788.78;4917348;29;20183;-88
2022/03/07 12:01:16;;;;;;;3.03;1.70;;;;;;;11.07;55.78;98781.59;4916896;29;20644;-88
2022/03/07 12:03:41;;;;;;;2.53;1.20;;;;;;;11.31;53.28;98769.59;4918917;29;20294;-88
2022/03/07 12:06:10;;;;;;;3.47;1.60;;;;;;;11.59;52.07;98769.56;4920265;29;20239;-88
2022/03/07 12:08:51;;;;;;;2.47;0.97;;;;;;;11.76;50.33;98776.44;4919895;29;20181;-88
2022/03/07 12:11:34;;;;;;;7.50;1.63;;;;;;;11.81;51.27;98769.13;4937176;29;20197;-88
2022/03/07 12:14:03;;;;;;;2.60;1.13;;;;;;;11.76;48.96;98765.09;4936896;29;20184;-87
2022/03/07 12:16:39;;;;;;;2.97;1.60;;;;;;;11.65;49.18;98768.34;4936398;29;20190;-88
2022/03/07 12:19:10;;;;;;;2.83;1.60;;;;;;;11.29;50.64;98766.25;4936579;29;20531;-88
2022/03/07 12:21:37;;;;;;;1.47;1.17;;;;;;;11.31;51.94;98768.75;4936514;29;20173;-88
2022/03/07 12:24:05;;;;;;;2.27;1.20;;;;;;;11.26;53.17;98761.19;4936696;29;20170;-88
2022/03/07 12:26:31;;;;;;;2.20;1.17;;;;;;;11.39;53.81;98764.75;4936638;29;20656;-88
2022/03/07 12:28:57;;;;;;;3.03;1.47;;;;;;;11.42;52.26;98754.06;4936364;29;20268;-88
2022/03/07 12:31:22;;;;;;;3.37;1.57;;;;;;;11.48;52.67;98769.41;4936510;29;20325;-88
2022/03/07 12:33:48;;;;;;;2.50;1.20;;;;;;;11.47;52.54;98766.88;4935658;29;20531;-88
2022/03/07 12:36:15;;;;;;;2.17;0.90;;;;;;;11.29;51.27;98755.75;4936234;29;20201;-87
2022/03/07 12:38:49;;;;;;;2.10;1.07;;;;;;;11.14;51.37;98755.84;4936168;29;20173;-87
2022/03/07 12:41:18;;;;;;;1.63;1.10;;;;;;;11.25;51.33;98751.59;4936424;29;20192;-88
2022/03/07 12:43:45;;;;;;;1.53;0.90;;;;;;;11.41;52.06;98749.72;4936135;29;20178;-88
2022/03/07 12:46:13;;;;;;;2.97;1.20;;;;;;;11.02;51.99;98752.16;4919345;29;20189;-88
2022/03/07 12:48:43;;;;;;;2.53;0.97;;;;;;;11.01;53.62;98758.34;4919326;29;20181;-87
2022/03/07 12:51:19;;;;;;;1.53;1.17;;;;;;;11.13;53.45;98756.75;4936521;29;20204;-88
2022/03/07 12:53:51;;;;;;;2.77;1.43;;;;;;;11.11;52.40;98756.84;4936803;29;20184;-88
2022/03/07 12:56:21;;;;;;;1.80;1.00;;;;;;;11.20;52.36;98751.06;4919192;29;20309;-88
2022/03/07 12:58:49;;;;;;;1.90;1.03;;;;;;;11.34;52.61;98753.69;4935998;29;20162;-88
2022/03/07 13:01:15;;;;;;;1.60;1.10;;;;;;;11.22;53.38;98758.81;4935931;29;20178;-88
2022/03/07 13:03:41;;;;;;;1.70;0.83;;;;;;;11.28;52.35;98754.06;4935747;29;20683;-87
2022/03/07 13:06:06;;;;;;;1.53;1.03;;;;;;;11.15;53.65;98745.25;4936192;29;20166;-87
2022/03/07 13:08:32;;;;;;;3.13;1.30;;;;;;;11.16;51.75;98744.31;4935846;29;20178;-88
2022/03/07 13:10:58;;;;;;;5.40;1.23;;;;;;;11.12;51.94;98742.81;4935751;29;20212;-88
2022/03/07 13:13:23;;;;;;;7.07;2.73;;;;;;;11.16;51.58;98741.69;4935808;29;20233;-88
2022/03/07 13:15:49;;;;;;;3.30;1.13;;;;;;;11.26;51.99;98734.09;4936044;29;20177;-88
2022/03/07 13:18:15;;;;;;;3.00;1.73;;;;;;;11.32;53.33;98729.28;4936031;29;20192;-88
2022/03/07 13:20:42;;;;;;;5.57;1.90;;;;;;;11.49;52.43;98736.13;4935728;29;20173;-88
2022/03/07 13:23:08;;;;;;;7.00;2.90;;;;;;;11.55;52.85;98731.34;4919280;29;20534;-88
2022/03/07 13:25:42;;;;;;;2.13;1.30;;;;;;;11.54;50.66;98729.66;4935692;29;20193;-88
2022/03/07 13:28:09;;;;;;;3.13;1.60;;;;;;;11.13;51.26;98727.91;4935915;29;20173;-87
2022/03/07 13:30:36;;;;;;;2.73;1.27;;;;;;;11.10;51.30;98727.16;4936112;29;20201;-88
2022/03/07 13:33:06;;;;;;;5.23;2.10;;;;;;;11.20;52.23;98723.97;4935895;29;20624;-88
2022/03/07 13:35:32;;;;;;;4.77;2.13;;;;;;;11.18;53.18;98736.34;4935587;29;20655;-87
2022/03/07 13:37:58;;;;;;;6.13;2.10;;;;;;;11.14;53.04;98733.06;4935842;29;20174;-88
2022/03/07 13:40:32;;;;;;;6.33;2.80;;;;;;;11.00;54.14;98738.31;4918844;29;20189;-88
2022/03/07 13:43:00;;;;;;;10.30;3.17;;;;;;;11.04;54.09;98719.66;4935882;29;20592;-88
2022/03/07 13:45:29;;;;;;;6.67;3.17;;;;;;;11.46;54.53;98717.94;4937145;29;20182;-88
2022/03/07 13:48:00;;;;;;;11.67;3.03;;;;;;;11.30;53.85;98730.31;4939825;29;20186;-88
2022/03/07 13:50:28;;;;;;;4.87;2.00;;;;;;;11.40;53.30;98727.03;4939773;29;20205;-88
2022/03/07 13:53:07;;;;;;;5.47;3.30;;;;;;;11.41;50.51;98727.88;4939435;29;20189;-88
2022/03/07 13:55:36;;;;;;;6.83;2.87;;;;;;;11.32;52.16;98726.66;4939402;29;20593;-88
2022/03/07 13:58:05;;;;;;;6.53;2.57;;;;;;;11.36;52.63;98725.56;4939075;29;20653;-88
2022/03/07 14:00:31;;;;;;;6.77;2.63;;;;;;;11.55;51.83;98728.72;4922581;29;20679;-87
2022/03/07 14:03:03;;;;;;;7.50;2.70;;;;;;;11.52;51.29;98728.06;4922221;29;20244;-88
2022/03/07 14:05:45;;;;;;;5.63;2.57;;;;;;;11.68;50.05;98732.31;4922083;29;20213;-88
2022/03/07 14:08:11;;;;;;;4.67;2.30;;;;;;;11.95;50.35;98732.28;4939148;29;20182;-88
2022/03/07 14:10:37;;;;;;;5.17;2.37;;;;;;;11.68;50.62;98726.16;4938758;29;20206;-88
2022/03/07 14:13:03;;;;;;;9.20;2.93;;;;;;;11.72;50.51;98717.19;4939384;29;20188;-88
2022/03/07 14:15:43;;;;;;;5.70;2.17;;;;;;;11.97;49.97;98721.72;4939277;29;20192;-88